Richmond, Australia
Current Conditions -  °F | °C
As of 10:00 AM on Sunday 23 Nov 2014 (Local Time) from YMHB Reporting Station
Clear Clear  
Wind Chill: 70°   Ceiling: Unl
Heat Index: 70°   Visibility: 6mi
Dew Point: 34°   Wind: 15mph
Humidity: 27%   Direction: 290°WNW
Pressure: 29.77"   Gusts: NA
Location:  42.73°S, 147.43°E
Report Text: YMHB 230000Z 29013KT CAVOK 21/01 Q1008
Loading
Personal Weather Stations






























Interactive Weather Map New forecast layout! Learn more

10-Day Weather Forecast

Advertisements
Track Severe Weather on mobile